createdAt,value
2023-04-25T00:00:51.312Z,24.37
2023-04-25T00:01:51.322Z,24.38
2023-04-25T00:02:51.470Z,24.38
2023-04-25T00:03:51.762Z,24.40
2023-04-25T00:04:51.525Z,24.42
2023-04-25T00:05:51.365Z,24.41
2023-04-25T00:06:51.261Z,24.46
2023-04-25T00:07:51.265Z,24.48
2023-04-25T00:08:51.256Z,24.45
2023-04-25T00:09:51.231Z,24.54
2023-04-25T00:10:51.237Z,24.52
2023-04-25T00:11:51.225Z,24.52
2023-04-25T00:12:51.227Z,24.56
2023-04-25T00:13:51.483Z,24.56
2023-04-25T00:14:51.222Z,24.56
2023-04-25T00:15:51.266Z,24.57
2023-04-25T00:16:51.244Z,24.60
2023-04-25T00:17:51.281Z,24.60
2023-04-25T00:18:51.268Z,24.60
2023-04-25T00:19:51.292Z,24.61
2023-04-25T00:20:51.335Z,24.63
2023-04-25T00:21:51.316Z,24.61
2023-04-25T00:22:51.307Z,24.65
2023-04-25T00:23:51.585Z,24.67
2023-04-25T00:24:51.330Z,24.68
2023-04-25T00:25:51.328Z,24.73
2023-04-25T00:26:51.331Z,24.81
2023-04-25T00:27:51.340Z,24.76
2023-04-25T00:28:51.374Z,24.82
2023-04-25T00:29:51.370Z,24.88
2023-04-25T00:30:51.397Z,24.94
2023-04-25T00:31:51.387Z,24.92
2023-04-25T00:32:51.398Z,25.01
2023-04-25T00:33:51.678Z,24.99
2023-04-25T00:34:51.389Z,25.08
2023-04-25T00:35:51.391Z,25.13
2023-04-25T00:36:51.412Z,25.18
2023-04-25T00:37:51.402Z,25.15
2023-04-25T00:38:51.518Z,25.21
2023-04-25T00:39:51.438Z,25.24
2023-04-25T00:40:51.424Z,25.19
2023-04-25T00:41:51.435Z,25.37
2023-04-25T00:42:51.447Z,25.29
2023-04-25T00:43:51.730Z,25.35
2023-04-25T00:44:51.465Z,25.44
2023-04-25T00:45:51.469Z,25.48
2023-04-25T00:46:51.545Z,25.49
2023-04-25T00:47:51.508Z,25.53
2023-04-25T00:48:51.495Z,25.51
2023-04-25T00:49:51.508Z,25.52
2023-04-25T00:50:51.501Z,25.62
2023-04-25T00:51:51.511Z,25.62
2023-04-25T00:52:51.529Z,25.57
2023-04-25T00:53:51.902Z,25.65
2023-04-25T00:54:51.529Z,25.55
2023-04-25T00:55:51.539Z,25.58
2023-04-25T00:56:51.549Z,25.55
2023-04-25T00:57:51.550Z,25.51
2023-04-25T00:58:51.554Z,25.48
2023-04-25T00:59:51.581Z,25.46
2023-04-25T01:00:51.622Z,25.44
2023-04-25T01:01:51.611Z,25.44
2023-04-25T01:02:51.817Z,25.39
2023-04-25T01:03:51.897Z,25.46
2023-04-25T01:04:51.632Z,25.45
2023-04-25T01:05:51.626Z,25.51
2023-04-25T01:06:51.626Z,25.39
2023-04-25T01:07:51.644Z,25.45
2023-04-25T01:08:51.639Z,25.54
2023-04-25T01:09:51.647Z,25.45
2023-04-25T01:10:51.654Z,25.54
2023-04-25T01:11:51.698Z,25.52
2023-04-25T01:12:51.661Z,25.58
2023-04-25T01:13:52.079Z,25.61
2023-04-25T01:14:51.698Z,25.69
2023-04-25T01:15:51.708Z,25.58
2023-04-25T01:16:51.711Z,25.68
2023-04-25T01:17:51.753Z,25.77
2023-04-25T01:18:51.703Z,25.77
2023-04-25T01:19:51.704Z,25.71
2023-04-25T01:20:51.738Z,25.71
2023-04-25T01:21:51.709Z,25.83
2023-04-25T01:22:51.700Z,25.81
2023-04-25T01:23:51.863Z,25.88
2023-04-25T01:24:51.728Z,25.80
2023-04-25T01:25:51.746Z,25.87
2023-04-25T01:26:51.726Z,25.85
2023-04-25T01:27:51.737Z,25.87
2023-04-25T01:28:51.740Z,25.89
2023-04-25T01:29:51.736Z,25.88
2023-04-25T01:30:51.782Z,25.90
2023-04-25T01:31:51.798Z,25.86
2023-04-25T01:32:51.784Z,25.94
2023-04-25T01:33:52.014Z,25.91
2023-04-25T01:34:51.793Z,25.89
2023-04-25T01:35:51.795Z,25.90
2023-04-25T01:36:51.782Z,25.92
2023-04-25T01:37:51.789Z,25.89
2023-04-25T01:38:51.823Z,25.98
2023-04-25T01:39:51.825Z,25.94
2023-04-25T01:40:51.841Z,25.97
2023-04-25T01:41:51.839Z,25.94
2023-04-25T01:42:51.865Z,25.96
2023-04-25T01:43:52.062Z,25.96
2023-04-25T01:44:51.858Z,25.95
2023-04-25T01:45:51.893Z,25.96
2023-04-25T01:46:51.885Z,25.96
2023-04-25T01:47:51.924Z,26.02
2023-04-25T01:48:51.903Z,26.02
2023-04-25T01:49:51.934Z,26.03
2023-04-25T01:50:51.948Z,26.06
2023-04-25T01:51:51.932Z,26.06
2023-04-25T01:52:51.941Z,26.10
2023-04-25T01:53:52.148Z,26.10
2023-04-25T01:54:51.960Z,26.09
2023-04-25T01:55:51.985Z,26.10
2023-04-25T01:56:52.005Z,26.08
2023-04-25T01:57:51.999Z,26.09
2023-04-25T01:58:51.998Z,26.09
2023-04-25T01:59:52.035Z,26.10
2023-04-25T02:00:52.023Z,26.13
2023-04-25T02:01:52.132Z,26.16
2023-04-25T02:02:52.252Z,26.17
2023-04-25T02:03:52.416Z,26.16
2023-04-25T02:04:52.175Z,26.20
2023-04-25T02:05:52.072Z,26.19
2023-04-25T02:06:52.087Z,26.22
2023-04-25T02:07:52.109Z,26.28
2023-04-25T02:08:52.110Z,26.34
2023-04-25T02:09:52.096Z,26.35
2023-04-25T02:10:52.112Z,26.31
2023-04-25T02:11:52.151Z,26.36
2023-04-25T02:12:52.138Z,26.32
2023-04-25T02:13:52.386Z,26.40
2023-04-25T02:14:52.147Z,26.44
2023-04-25T02:15:52.191Z,26.38
2023-04-25T02:16:52.301Z,26.35
2023-04-25T02:17:52.202Z,26.34
2023-04-25T02:18:52.194Z,26.46
2023-04-25T02:19:52.188Z,26.50
2023-04-25T02:20:52.206Z,26.47
2023-04-25T02:21:52.233Z,26.48
2023-04-25T02:22:52.240Z,26.50
2023-04-25T02:23:52.467Z,26.50
2023-04-25T02:24:52.236Z,26.52
2023-04-25T02:25:52.257Z,26.49
2023-04-25T02:26:52.274Z,26.54
2023-04-25T02:27:52.296Z,26.53
2023-04-25T02:28:52.301Z,26.56
2023-04-25T02:29:52.315Z,26.58
2023-04-25T02:30:52.332Z,26.55
2023-04-25T02:31:52.477Z,26.62
2023-04-25T02:32:52.399Z,26.61
2023-04-25T02:33:52.530Z,26.60
2023-04-25T02:34:52.394Z,26.64
2023-04-25T02:35:52.399Z,26.66
2023-04-25T02:36:52.406Z,26.66
2023-04-25T02:37:52.415Z,26.67
2023-04-25T02:38:52.430Z,26.70
2023-04-25T02:39:52.433Z,26.75
2023-04-25T02:40:52.458Z,26.73
2023-04-25T02:41:52.470Z,26.74
2023-04-25T02:42:52.524Z,26.73
2023-04-25T02:43:52.771Z,26.72
2023-04-25T02:44:52.514Z,26.76
2023-04-25T02:45:52.479Z,26.71
2023-04-25T02:46:52.548Z,26.76
2023-04-25T02:47:52.556Z,26.72
2023-04-25T02:48:52.516Z,26.74
2023-04-25T02:49:52.524Z,26.70
2023-04-25T02:50:52.555Z,26.79
2023-04-25T02:51:52.544Z,26.77
2023-04-25T02:52:52.547Z,26.83
2023-04-25T02:53:52.691Z,26.85
2023-04-25T02:54:52.567Z,26.85
2023-04-25T02:55:52.581Z,26.85
2023-04-25T02:56:52.586Z,26.85
2023-04-25T02:57:52.603Z,26.85
2023-04-25T02:58:52.598Z,26.84
2023-04-25T02:59:52.631Z,26.85
2023-04-25T03:00:52.702Z,26.87
2023-04-25T03:01:52.653Z,26.79
2023-04-25T03:02:52.723Z,26.83
2023-04-25T03:03:52.857Z,26.80
2023-04-25T03:04:52.696Z,26.85
2023-04-25T03:05:52.689Z,26.88
2023-04-25T03:06:52.692Z,26.84
2023-04-25T03:07:52.687Z,26.80
2023-04-25T03:08:52.698Z,26.80
2023-04-25T03:09:52.703Z,26.77
2023-04-25T03:10:52.729Z,26.76
2023-04-25T03:11:52.737Z,26.75
2023-04-25T03:12:52.741Z,26.74
2023-04-25T03:13:53.032Z,26.76
2023-04-25T03:14:52.784Z,26.72
2023-04-25T03:15:52.792Z,26.70
2023-04-25T03:16:52.871Z,26.70
2023-04-25T03:17:52.860Z,26.67
2023-04-25T03:18:52.827Z,26.63
2023-04-25T03:19:52.886Z,26.63
2023-04-25T03:20:52.863Z,26.61
2023-04-25T03:21:52.890Z,26.59
2023-04-25T03:22:52.884Z,26.56
2023-04-25T03:23:53.053Z,26.56
2023-04-25T03:24:52.923Z,26.53
2023-04-25T03:25:52.932Z,26.50
2023-04-25T03:26:52.943Z,26.51
2023-04-25T03:27:52.960Z,26.49
2023-04-25T03:28:52.973Z,26.45
2023-04-25T03:29:52.988Z,26.41
2023-04-25T03:30:52.997Z,26.39
2023-04-25T03:31:53.065Z,26.41
2023-04-25T03:32:53.059Z,26.36
2023-04-25T03:33:53.228Z,26.36
2023-04-25T03:34:53.051Z,26.36
2023-04-25T03:35:53.044Z,26.36
2023-04-25T03:36:53.087Z,26.36
2023-04-25T03:37:53.078Z,26.33
2023-04-25T03:38:53.100Z,26.35
2023-04-25T03:39:53.109Z,26.34
2023-04-25T03:40:53.098Z,26.34
2023-04-25T03:41:53.124Z,26.34
2023-04-25T03:42:53.137Z,26.35
2023-04-25T03:43:53.319Z,26.36
2023-04-25T03:44:53.161Z,26.34
2023-04-25T03:45:53.232Z,26.35
2023-04-25T03:46:53.166Z,26.36
2023-04-25T03:47:53.193Z,26.36
2023-04-25T03:48:53.183Z,26.39
2023-04-25T03:49:53.211Z,26.37
2023-04-25T03:50:53.202Z,26.37
2023-04-25T03:51:53.649Z,26.36
2023-04-25T03:52:53.223Z,26.37
2023-04-25T03:53:53.356Z,26.38
2023-04-25T03:54:53.234Z,26.39
2023-04-25T03:55:53.248Z,26.37
2023-04-25T03:56:53.269Z,26.38
2023-04-25T03:57:53.270Z,26.38
2023-04-25T03:58:53.280Z,26.40
2023-04-25T03:59:53.657Z,26.39
2023-04-25T04:00:53.312Z,26.40
2023-04-25T04:01:53.322Z,26.41
2023-04-25T04:02:53.411Z,26.41
2023-04-25T04:03:53.680Z,26.42
2023-04-25T04:04:53.422Z,26.40
2023-04-25T04:05:53.376Z,26.41
2023-04-25T04:06:53.368Z,26.41
2023-04-25T04:07:53.375Z,26.41
2023-04-25T04:08:53.358Z,26.43
2023-04-25T04:09:53.377Z,26.42
2023-04-25T04:10:53.364Z,26.43
2023-04-25T04:11:53.395Z,26.38
2023-04-25T04:12:53.415Z,26.40
2023-04-25T04:13:53.597Z,26.41
2023-04-25T04:14:53.399Z,26.41
2023-04-25T04:15:53.423Z,26.40
2023-04-25T04:16:53.430Z,26.41
2023-04-25T04:17:53.491Z,26.39
2023-04-25T04:18:53.426Z,26.41
2023-04-25T04:19:53.454Z,26.41
2023-04-25T04:20:53.485Z,26.40
2023-04-25T04:21:53.464Z,26.39
2023-04-25T04:22:53.459Z,26.40
2023-04-25T04:23:53.486Z,26.40
2023-04-25T04:24:53.500Z,26.39
2023-04-25T04:25:53.527Z,26.39
2023-04-25T04:26:53.533Z,26.38
2023-04-25T04:27:53.554Z,26.39
2023-04-25T04:28:53.519Z,26.37
2023-04-25T04:29:53.549Z,26.36
2023-04-25T04:30:53.582Z,26.36
2023-04-25T04:31:53.928Z,26.34
2023-04-25T04:32:53.626Z,26.36
2023-04-25T04:33:53.717Z,26.37
2023-04-25T04:34:53.594Z,26.36
2023-04-25T04:35:53.579Z,26.37
2023-04-25T04:36:53.594Z,26.37
2023-04-25T04:37:53.579Z,26.39
2023-04-25T04:38:53.597Z,26.40
2023-04-25T04:39:53.589Z,26.40
2023-04-25T04:40:53.599Z,26.39
2023-04-25T04:41:53.617Z,26.41
2023-04-25T04:42:53.607Z,26.40
2023-04-25T04:43:53.619Z,26.38
2023-04-25T04:44:53.616Z,26.40
2023-04-25T04:45:53.631Z,26.38
2023-04-25T04:46:53.722Z,26.39
2023-04-25T04:47:53.679Z,26.37
2023-04-25T04:48:53.653Z,26.39
2023-04-25T04:49:53.690Z,26.39
2023-04-25T04:50:53.680Z,26.38
2023-04-25T04:51:53.692Z,26.40
2023-04-25T04:52:53.726Z,26.38
2023-04-25T04:53:53.998Z,26.39
2023-04-25T04:54:53.771Z,26.41
2023-04-25T04:55:53.768Z,26.40
2023-04-25T04:56:53.801Z,26.40
2023-04-25T04:57:53.800Z,26.42
2023-04-25T04:58:53.792Z,26.41
2023-04-25T04:59:53.802Z,26.42
2023-04-25T05:00:53.853Z,26.41
2023-04-25T05:01:53.815Z,26.41
2023-04-25T05:02:53.929Z,26.42
2023-04-25T05:03:54.556Z,26.41
2023-04-25T05:04:53.964Z,26.41
2023-04-25T05:05:53.865Z,26.43
2023-04-25T05:06:53.882Z,26.44
2023-04-25T05:07:53.873Z,26.49
2023-04-25T05:08:53.900Z,26.48
2023-04-25T05:09:53.918Z,26.44
2023-04-25T05:10:53.937Z,26.41
2023-04-25T05:11:53.959Z,26.41
2023-04-25T05:12:53.931Z,26.42
2023-04-25T05:13:54.114Z,26.41
2023-04-25T05:14:53.928Z,26.42
2023-04-25T05:15:53.921Z,26.41
2023-04-25T05:16:53.982Z,26.44
2023-04-25T05:17:54.061Z,26.44
2023-04-25T05:18:53.946Z,26.48
2023-04-25T05:19:53.944Z,26.49
2023-04-25T05:20:53.951Z,26.47
2023-04-25T05:21:53.910Z,26.44
2023-04-25T05:22:53.899Z,26.58
2023-04-25T05:23:54.241Z,26.71
2023-04-25T05:24:55.929Z,26.60
2023-04-25T05:25:54.188Z,26.65
2023-04-25T05:26:53.889Z,26.85
2023-04-25T05:27:53.914Z,27.22
2023-04-25T05:28:53.893Z,27.17
2023-04-25T05:29:53.923Z,27.43
2023-04-25T05:30:54.205Z,27.79
2023-04-25T05:31:54.065Z,28.02
2023-04-25T05:32:53.984Z,27.83
2023-04-25T05:33:53.951Z,28.14
2023-04-25T05:34:54.011Z,28.41
2023-04-25T05:35:53.944Z,29.04
2023-04-25T05:36:53.933Z,29.08
2023-04-25T05:37:53.928Z,29.12
2023-04-25T05:38:54.032Z,28.94
2023-04-25T05:39:54.005Z,28.61
2023-04-25T05:40:54.189Z,28.61
2023-04-25T05:41:54.111Z,28.59
2023-04-25T05:42:54.168Z,28.37
2023-04-25T05:43:57.063Z,28.38
2023-04-25T05:44:54.221Z,28.36
2023-04-25T05:45:54.271Z,28.00
2023-04-25T05:46:54.219Z,27.91
2023-04-25T05:47:54.310Z,27.72
2023-04-25T05:48:54.195Z,28.06
2023-04-25T05:49:54.182Z,27.77
2023-04-25T05:50:54.183Z,27.88
2023-04-25T05:51:54.171Z,28.07
2023-04-25T05:52:54.166Z,27.92
2023-04-25T05:53:54.254Z,28.02
2023-04-25T05:54:54.152Z,28.00
2023-04-25T05:55:54.159Z,27.83
2023-04-25T05:56:54.147Z,27.71
2023-04-25T05:57:54.120Z,27.71
2023-04-25T05:58:54.120Z,27.64
2023-04-25T05:59:54.115Z,27.59
2023-04-25T06:00:54.113Z,27.38
2023-04-25T06:01:54.162Z,27.59
2023-04-25T06:02:54.244Z,27.48
2023-04-25T06:03:54.687Z,27.75
2023-04-25T06:04:54.233Z,27.82
2023-04-25T06:05:54.101Z,28.18
2023-04-25T06:06:54.051Z,28.02
2023-04-25T06:07:54.043Z,28.01
2023-04-25T06:08:54.074Z,27.92
2023-04-25T06:09:54.051Z,27.96
2023-04-25T06:10:54.033Z,27.90
2023-04-25T06:11:54.036Z,27.56
2023-04-25T06:12:54.225Z,28.26
2023-04-25T06:13:54.093Z,28.14
2023-04-25T06:14:54.026Z,28.12
2023-04-25T06:15:54.040Z,28.05
2023-04-25T06:16:54.713Z,27.91
2023-04-25T06:17:54.222Z,27.82
2023-04-25T06:18:54.000Z,27.88
2023-04-25T06:19:54.000Z,28.49
2023-04-25T06:20:53.993Z,28.54
2023-04-25T06:21:53.974Z,28.35
2023-04-25T06:22:54.196Z,28.47
2023-04-25T06:23:54.222Z,28.33
2023-04-25T06:24:53.984Z,28.17
2023-04-25T06:25:53.982Z,28.13
2023-04-25T06:26:53.982Z,28.06
2023-04-25T06:27:53.947Z,27.94
2023-04-25T06:28:53.960Z,28.29
2023-04-25T06:29:53.910Z,28.31
2023-04-25T06:30:53.961Z,28.44
2023-04-25T06:31:53.937Z,28.20
2023-04-25T06:32:54.448Z,28.30
2023-04-25T06:33:53.912Z,28.08
2023-04-25T06:34:53.905Z,28.68
2023-04-25T06:35:53.886Z,28.65
2023-04-25T06:36:53.873Z,28.39
2023-04-25T06:37:54.218Z,28.02
2023-04-25T06:38:53.887Z,27.98
2023-04-25T06:39:53.887Z,28.05
2023-04-25T06:40:53.935Z,28.14
2023-04-25T06:41:53.973Z,28.11
2023-04-25T06:42:54.275Z,28.10
2023-04-25T06:43:54.126Z,28.16
2023-04-25T06:44:54.106Z,28.23
2023-04-25T06:45:54.239Z,28.33
2023-04-25T06:46:54.161Z,28.33
2023-04-25T06:47:54.241Z,28.39
2023-04-25T06:48:54.152Z,28.47
2023-04-25T06:49:54.149Z,28.52
2023-04-25T06:50:54.206Z,28.59
2023-04-25T06:51:54.215Z,28.55
2023-04-25T06:52:54.233Z,28.57
2023-04-25T06:53:54.253Z,28.61
2023-04-25T06:54:54.253Z,28.65
2023-04-25T06:55:54.439Z,28.68
2023-04-25T06:56:54.298Z,28.75
2023-04-25T06:57:54.340Z,28.78
2023-04-25T06:58:54.352Z,28.83
2023-04-25T06:59:54.391Z,28.86
2023-04-25T07:00:54.452Z,28.88
2023-04-25T07:01:54.461Z,28.88
2023-04-25T07:02:54.680Z,28.88
2023-04-25T07:03:54.653Z,28.85
2023-04-25T07:04:54.675Z,28.85
2023-04-25T07:05:54.716Z,28.92
2023-04-25T07:06:54.631Z,28.93
2023-04-25T07:07:54.737Z,29.00
2023-04-25T07:08:54.736Z,28.94
2023-04-25T07:09:54.799Z,28.97
2023-04-25T07:10:54.829Z,29.01
2023-04-25T07:11:54.904Z,29.07
2023-04-25T07:12:54.915Z,29.12
2023-04-25T07:13:54.957Z,29.18
2023-04-25T07:14:55.002Z,29.23
2023-04-25T07:15:57.166Z,29.33
2023-04-25T07:16:55.324Z,29.39
2023-04-25T07:17:55.266Z,29.50
2023-04-25T07:18:55.243Z,29.46
2023-04-25T07:19:55.293Z,29.54
2023-04-25T07:20:55.365Z,29.52
2023-04-25T07:21:55.417Z,29.57
2023-04-25T07:22:55.470Z,29.57
2023-04-25T07:23:55.533Z,29.51
2023-04-25T07:24:55.607Z,29.49
2023-04-25T07:25:55.673Z,29.49
2023-04-25T07:26:55.746Z,29.48
2023-04-25T07:27:56.234Z,29.39
2023-04-25T07:28:55.821Z,29.34
2023-04-25T07:29:55.876Z,29.35
2023-04-25T07:30:55.940Z,29.31
2023-04-25T07:31:56.044Z,29.34
2023-04-25T07:32:56.077Z,29.32
2023-04-25T07:33:56.116Z,29.32
2023-04-25T07:34:56.166Z,29.27
2023-04-25T07:35:56.264Z,29.25
2023-04-25T07:36:56.314Z,29.25
2023-04-25T07:37:56.322Z,29.29
2023-04-25T07:38:56.762Z,29.36
2023-04-25T07:39:56.432Z,29.88
2023-04-25T07:40:56.508Z,30.51
2023-04-25T07:41:56.536Z,30.46
2023-04-25T07:42:56.545Z,31.07
2023-04-25T07:43:56.742Z,30.51
2023-04-25T07:44:56.665Z,30.14
2023-04-25T07:45:56.682Z,30.10
2023-04-25T07:46:56.693Z,29.88
2023-04-25T07:47:56.782Z,29.85
2023-04-25T07:48:56.758Z,29.67
2023-04-25T07:49:56.730Z,29.80
2023-04-25T07:50:57.304Z,29.71
2023-04-25T07:51:56.734Z,29.55
2023-04-25T07:52:56.771Z,29.66
2023-04-25T07:53:57.241Z,29.75
2023-04-25T07:54:56.883Z,29.71
2023-04-25T07:55:56.969Z,30.58
2023-04-25T07:56:56.975Z,30.35
2023-04-25T07:57:57.023Z,30.58
2023-04-25T07:58:57.079Z,30.47
2023-04-25T07:59:57.154Z,30.22
2023-04-25T08:00:57.213Z,30.23
2023-04-25T08:01:57.247Z,30.20
2023-04-25T08:02:57.413Z,30.25
2023-04-25T08:03:57.712Z,30.70
2023-04-25T08:04:57.577Z,29.99
2023-04-25T08:05:57.652Z,29.74
2023-04-25T08:06:57.505Z,30.15
2023-04-25T08:07:57.522Z,29.85
2023-04-25T08:08:57.563Z,29.89
2023-04-25T08:09:57.586Z,29.62
2023-04-25T08:10:57.612Z,29.72
2023-04-25T08:11:57.643Z,29.75
2023-04-25T08:12:57.674Z,29.99
2023-04-25T08:13:57.765Z,29.76
2023-04-25T08:14:57.741Z,29.75
2023-04-25T08:15:57.836Z,29.65
2023-04-25T08:16:57.750Z,29.44
2023-04-25T08:17:57.785Z,29.71
2023-04-25T08:18:58.252Z,29.83
2023-04-25T08:19:57.825Z,29.85
2023-04-25T08:20:58.258Z,29.61
2023-04-25T08:21:57.979Z,29.23
2023-04-25T08:22:57.975Z,29.08
2023-04-25T08:23:58.511Z,28.69
2023-04-25T08:24:58.040Z,29.00
2023-04-25T08:25:58.036Z,28.82
2023-04-25T08:26:58.021Z,28.41
2023-04-25T08:27:58.095Z,28.05
2023-04-25T08:28:58.270Z,28.01
2023-04-25T08:29:58.065Z,27.74
2023-04-25T08:30:58.147Z,27.61
2023-04-25T08:31:58.120Z,27.54
2023-04-25T08:32:58.161Z,27.63
2023-04-25T08:33:58.302Z,27.93
2023-04-25T08:34:58.186Z,28.18
2023-04-25T08:35:58.253Z,28.49
2023-04-25T08:36:59.298Z,28.52
2023-04-25T08:37:58.300Z,28.98
2023-04-25T08:38:58.915Z,28.71
2023-04-25T08:39:58.375Z,28.65
2023-04-25T08:40:58.794Z,28.80
2023-04-25T08:41:58.404Z,28.79
2023-04-25T08:42:58.397Z,28.99
2023-04-25T08:43:58.430Z,28.80
2023-04-25T08:44:58.430Z,29.03
2023-04-25T08:45:58.461Z,28.69
2023-04-25T08:46:58.501Z,28.49
2023-04-25T08:47:58.510Z,28.93
2023-04-25T08:48:58.735Z,28.68
2023-04-25T08:49:58.468Z,28.81
2023-04-25T08:50:58.786Z,28.79
2023-04-25T08:51:58.475Z,28.56
2023-04-25T08:52:58.494Z,28.51
2023-04-25T08:54:02.133Z,28.70
2023-04-25T08:54:59.472Z,28.73
2023-04-25T08:55:59.282Z,28.75
2023-04-25T08:56:58.867Z,28.62
2023-04-25T08:57:58.431Z,28.55
2023-04-25T08:58:58.459Z,28.58
2023-04-25T08:59:58.465Z,28.57
2023-04-25T09:00:58.435Z,28.52
2023-04-25T09:01:58.463Z,28.31
2023-04-25T09:02:58.511Z,28.51
2023-04-25T09:03:58.467Z,28.21
2023-04-25T09:04:58.442Z,28.34
2023-04-25T09:05:58.399Z,28.49
2023-04-25T09:06:58.402Z,28.40
2023-04-25T09:07:58.448Z,28.46
2023-04-25T09:08:58.380Z,28.43
2023-04-25T09:09:58.376Z,28.42
2023-04-25T09:10:58.373Z,28.42
2023-04-25T09:11:58.359Z,28.27
2023-04-25T09:12:58.356Z,28.22
2023-04-25T09:13:58.341Z,28.39
2023-04-25T09:14:58.354Z,28.27
2023-04-25T09:15:58.443Z,28.28
2023-04-25T09:16:58.468Z,28.37
2023-04-25T09:17:58.588Z,28.18
2023-04-25T09:18:58.519Z,28.18
2023-04-25T09:19:58.525Z,27.89
2023-04-25T09:21:01.906Z,27.73
2023-04-25T09:21:58.794Z,27.64
2023-04-25T09:22:58.565Z,27.76
2023-04-25T09:23:58.539Z,27.71
2023-04-25T09:24:58.563Z,27.46
2023-04-25T09:25:58.532Z,27.55
2023-04-25T09:26:58.796Z,27.09
2023-04-25T09:27:58.527Z,27.12
2023-04-25T09:28:58.520Z,27.35
2023-04-25T09:29:58.541Z,27.32
2023-04-25T09:30:58.505Z,27.28
2023-04-25T09:31:58.860Z,27.27
2023-04-25T09:32:58.566Z,27.07
2023-04-25T09:33:58.790Z,27.03
2023-04-25T09:34:58.546Z,26.95
2023-04-25T09:35:58.478Z,26.87
2023-04-25T09:36:58.483Z,26.91
2023-04-25T09:37:58.454Z,26.72
2023-04-25T09:38:58.831Z,26.83
2023-04-25T09:39:58.447Z,26.81
2023-04-25T09:40:58.423Z,26.87
2023-04-25T09:41:58.425Z,26.72
2023-04-25T09:42:58.424Z,26.44
2023-04-25T09:43:58.998Z,26.57
2023-04-25T09:44:58.410Z,26.56
2023-04-25T09:45:59.147Z,26.42
2023-04-25T09:46:58.780Z,26.67
2023-04-25T09:47:58.425Z,26.76
2023-04-25T09:48:58.794Z,26.38
2023-04-25T09:49:58.389Z,26.46
2023-04-25T09:50:58.363Z,26.02
2023-04-25T09:51:58.839Z,26.50
2023-04-25T09:52:59.298Z,26.43
2023-04-25T09:53:58.346Z,26.28
2023-04-25T09:54:58.320Z,26.05
2023-04-25T09:55:58.323Z,26.06
2023-04-25T09:56:58.825Z,26.02
2023-04-25T09:57:58.337Z,25.97
2023-04-25T09:58:58.321Z,25.91
2023-04-25T09:59:58.302Z,25.99
2023-04-25T10:00:58.304Z,26.20
2023-04-25T10:01:58.298Z,26.21
2023-04-25T10:02:58.318Z,26.05
2023-04-25T10:03:58.604Z,25.99
2023-04-25T10:04:58.340Z,25.97
2023-04-25T10:05:58.260Z,26.10
2023-04-25T10:06:58.289Z,25.88
2023-04-25T10:07:58.251Z,26.18
2023-04-25T10:08:58.275Z,25.98
2023-04-25T10:09:58.242Z,26.24
2023-04-25T10:10:58.217Z,26.30
2023-04-25T10:11:58.213Z,26.31
2023-04-25T10:12:58.188Z,26.24
2023-04-25T10:13:58.200Z,26.10
2023-04-25T10:14:58.186Z,26.27
2023-04-25T10:15:58.226Z,26.23
2023-04-25T10:16:58.213Z,26.22
2023-04-25T10:17:58.217Z,25.91
2023-04-25T10:18:58.170Z,25.76
2023-04-25T10:19:58.163Z,25.83
2023-04-25T10:20:58.185Z,26.30
2023-04-25T10:21:58.309Z,27.22
2023-04-25T10:22:58.161Z,27.34
2023-04-25T10:23:58.150Z,28.11
2023-04-25T10:24:58.309Z,28.54
2023-04-25T10:25:58.096Z,29.35
2023-04-25T10:26:58.309Z,27.71
2023-04-25T10:27:58.100Z,27.04
2023-04-25T10:28:58.121Z,27.31
2023-04-25T10:29:58.295Z,27.45
2023-04-25T10:30:58.212Z,27.13
2023-04-25T10:31:58.110Z,27.06
2023-04-25T10:32:58.115Z,26.98
2023-04-25T10:33:58.093Z,27.09
2023-04-25T10:34:58.125Z,27.55
2023-04-25T10:35:58.147Z,27.51
2023-04-25T10:36:58.330Z,27.86
2023-04-25T10:37:58.191Z,28.02
2023-04-25T10:38:58.211Z,28.29
2023-04-25T10:39:58.226Z,28.62
2023-04-25T10:40:58.209Z,28.65
2023-04-25T10:41:58.249Z,28.81
2023-04-25T10:42:58.238Z,28.95
2023-04-25T10:43:58.206Z,29.03
2023-04-25T10:44:58.214Z,28.86
2023-04-25T10:45:58.254Z,28.94
2023-04-25T10:46:58.345Z,28.96
2023-04-25T10:47:58.318Z,28.80
2023-04-25T10:48:58.397Z,28.94
2023-04-25T10:49:58.814Z,28.83
2023-04-25T10:50:58.471Z,28.84
2023-04-25T10:51:58.858Z,28.86
2023-04-25T10:52:58.591Z,28.95
2023-04-25T10:53:58.661Z,29.11
2023-04-25T10:54:58.713Z,28.92
2023-04-25T10:55:58.773Z,28.98
2023-04-25T10:56:59.308Z,28.81
2023-04-25T10:58:59.067Z,28.85
2023-04-25T10:59:59.011Z,28.78
2023-04-25T11:00:59.085Z,28.70
2023-04-25T11:01:59.413Z,28.69
2023-04-25T11:02:59.298Z,28.54
2023-04-25T11:03:59.585Z,28.35
2023-04-25T11:04:59.277Z,28.38
2023-04-25T11:05:59.337Z,28.11
2023-04-25T11:08:07.559Z,28.47
2023-04-25T11:09:00.441Z,28.29
2023-04-25T11:09:59.463Z,28.47
2023-04-25T11:10:59.516Z,28.52
2023-04-25T11:11:59.459Z,28.71
2023-04-25T11:12:59.450Z,28.57
2023-04-25T11:13:59.428Z,27.81
2023-04-25T11:14:59.409Z,27.31
2023-04-25T11:16:07.449Z,26.63
2023-04-25T11:17:01.212Z,25.83
2023-04-25T11:17:59.417Z,25.68
2023-04-25T11:18:59.393Z,25.03
2023-04-25T11:19:59.405Z,24.53
2023-04-25T11:20:59.381Z,24.31
2023-04-25T11:21:59.370Z,24.23
2023-04-25T11:22:59.364Z,23.84
2023-04-25T11:23:59.369Z,24.11
2023-04-25T11:24:59.364Z,23.83
2023-04-25T11:25:59.336Z,24.01
2023-04-25T11:26:59.854Z,23.89
2023-04-25T11:27:59.355Z,24.01
2023-04-25T11:28:59.336Z,24.39
2023-04-25T11:29:59.412Z,24.43
2023-04-25T11:30:59.447Z,24.29
2023-04-25T11:31:59.732Z,24.71
2023-04-25T11:32:59.620Z,24.48
2023-04-25T11:33:59.644Z,24.41
2023-04-25T11:34:59.694Z,24.43
2023-04-25T11:35:59.767Z,24.84
2023-04-25T11:36:59.840Z,25.00
2023-04-25T11:37:59.925Z,25.21
2023-04-25T11:38:59.912Z,25.52
2023-04-25T11:40:00.036Z,26.24
2023-04-25T11:40:59.966Z,26.34
2023-04-25T11:42:01.459Z,26.34
2023-04-25T11:43:00.037Z,26.48
2023-04-25T11:44:00.125Z,26.42
2023-04-25T11:45:00.046Z,26.56
2023-04-25T11:46:00.161Z,26.38
2023-04-25T11:47:00.051Z,26.60
2023-04-25T11:48:00.117Z,26.53
2023-04-25T11:49:00.058Z,26.45
2023-04-25T11:50:00.078Z,26.35
2023-04-25T11:51:00.102Z,26.29
2023-04-25T11:52:00.170Z,26.13
2023-04-25T11:53:00.189Z,26.07
2023-04-25T11:54:00.252Z,26.02
2023-04-25T11:55:00.350Z,26.02
2023-04-25T11:56:00.429Z,25.90
2023-04-25T11:57:00.436Z,25.86
2023-04-25T11:58:00.488Z,25.82
2023-04-25T11:59:00.625Z,25.79
2023-04-25T12:00:00.605Z,25.82
2023-04-25T12:01:00.669Z,25.79
2023-04-25T12:02:00.700Z,25.80
2023-04-25T12:03:00.953Z,25.74
2023-04-25T12:04:00.995Z,25.76
2023-04-25T12:05:11.869Z,25.76
2023-04-25T12:06:02.021Z,25.74
2023-04-25T12:07:00.925Z,25.71
2023-04-25T12:08:00.814Z,25.69
2023-04-25T12:09:00.796Z,25.59
2023-04-25T12:10:00.824Z,25.69
2023-04-25T12:11:00.828Z,25.66
2023-04-25T12:12:00.781Z,25.52
2023-04-25T12:13:00.799Z,25.55
2023-04-25T12:14:00.768Z,25.57
2023-04-25T12:15:01.370Z,25.48
2023-04-25T12:16:00.761Z,25.68
2023-04-25T12:17:00.773Z,25.42
2023-04-25T12:18:00.870Z,25.44
2023-04-25T12:19:00.768Z,25.53
2023-04-25T12:20:00.722Z,25.34
2023-04-25T12:21:00.750Z,25.31
2023-04-25T12:22:00.791Z,25.25
2023-04-25T12:23:00.822Z,25.38
2023-04-25T12:24:00.827Z,25.44
2023-04-25T12:25:01.386Z,25.43
2023-04-25T12:26:00.882Z,25.46
2023-04-25T12:27:00.931Z,25.32
2023-04-25T12:28:00.930Z,25.37
2023-04-25T12:29:00.956Z,25.18
2023-04-25T12:30:01.047Z,25.54
2023-04-25T12:31:01.041Z,25.48
2023-04-25T12:32:01.132Z,25.56
2023-04-25T12:33:01.478Z,25.31
2023-04-25T12:34:01.866Z,25.38
2023-04-25T12:35:01.182Z,25.19
2023-04-25T12:36:01.187Z,25.40
2023-04-25T12:37:01.234Z,25.48
2023-04-25T12:38:01.409Z,25.23
2023-04-25T12:39:01.238Z,25.29
2023-04-25T12:40:01.289Z,25.20
2023-04-25T12:41:01.450Z,25.17
2023-04-25T12:42:01.364Z,25.12
2023-04-25T12:43:01.422Z,25.05
2023-04-25T12:44:01.422Z,25.30
2023-04-25T12:45:02.406Z,25.17
2023-04-25T12:46:01.500Z,25.26
2023-04-25T12:47:01.566Z,25.22
2023-04-25T12:48:03.944Z,25.20
2023-04-25T12:49:11.707Z,25.09
2023-04-25T12:50:02.858Z,25.09
2023-04-25T12:51:01.738Z,24.95
2023-04-25T12:52:01.723Z,24.99
2023-04-25T12:53:01.710Z,24.99
2023-04-25T12:54:01.700Z,25.03
2023-04-25T12:55:01.753Z,24.96